Portada
METAR-TAF:

METAR-TAF

Aeroports :

Morristown, Tennessee, Estats Units d'Amèrica

latitud: 36-10-46N, longitud: 083-22-32W, altitud: 400 m

Observació

L'informe es va fer fa 17 minuts, a les 13:35 UTC
Vent 4 kt del Sud/Sud-Oest
Temperatura 5°C
Humitat 87%
Pressió 1011 hPa
Visibilitat: 16.1 km
Cel cobert a una alçada de 3400 ft

METAR: KMOR 191335Z AUTO 21004KT 10SM OVC034 05/03 A2985 RMK A01

Hora: 07:52 (13:52 UTC)


TAF: manca

Observacions i pronòstics meteorològics de més de 4000 aeroports (METAR i TAF).

Les estacions disponibles són els punts grocs i vermells al mapa.

Posi el ratolí al punt desitjat per veure el nom de l'estació.

Feu clic per veure les observacions i els pronòstics meteorològics.

Per canviar el mapa: feu clic els botons verds amb una creu de color negre per apropar; al botó verd amb un guió per allunyar la imatge; o en les fletxes verdes per a mapes adjacents.


METAR-TAF: